Time;durP1;ratioP1;P1;durP2;ratioP2;P2;SDS_P1;SDS_P2;PMS_P1;PMS_P2;Temp;Humidity;BMP_temperature;BMP_pressure;BME280_temperature;BME280_humidity;BME280_pressure;Samples;Min_cycle;Max_cycle;Signal;HPM_P1;HPM_P2
2022/06/23 00:02:02;;;;;;;18.40;9.40;;;;;;;17.06;78.36;93206.25;5152233;27;20034;-47
2022/06/23 00:04:34;;;;;;;16.75;8.95;;;;;;;16.94;79.03;93187.97;5152229;27;20044;-46
2022/06/23 00:07:04;;;;;;;13.52;9.20;;;;;;;16.85;79.79;93209.00;5151748;27;20101;-46
2022/06/23 00:09:38;;;;;;;17.77;8.80;;;;;;;16.89;79.90;93209.28;5151716;27;20023;-47
2022/06/23 00:12:19;;;;;;;11.10;8.35;;;;;;;16.90;79.84;93213.53;5152105;27;20022;-48
2022/06/23 00:15:04;;;;;;;13.27;8.75;;;;;;;16.97;79.39;93206.31;5151924;27;20087;-48
2022/06/23 00:17:32;;;;;;;16.80;10.02;;;;;;;16.93;80.11;93203.25;5133644;27;20039;-49
2022/06/23 00:20:10;;;;;;;11.93;8.43;;;;;;;16.88;80.27;93204.31;5151633;27;20022;-47
2022/06/23 00:22:39;;;;;;;23.30;9.75;;;;;;;16.78;80.19;93204.38;5137447;27;20440;-47
2022/06/23 00:25:06;;;;;;;13.52;9.02;;;;;;;16.85;80.28;93199.94;5151521;27;20545;-48
2022/06/23 00:27:39;;;;;;;14.13;8.68;;;;;;;16.82;80.68;93213.00;5133178;27;20030;-48
2022/06/23 00:30:28;;;;;;;18.38;8.77;;;;;;;16.82;80.30;93218.59;5132909;27;20034;-48
2022/06/23 00:32:53;;;;;;;15.55;8.48;;;;;;;16.74;80.27;93217.31;5132380;27;20033;-46
2022/06/23 00:35:19;;;;;;;16.60;8.27;;;;;;;16.75;80.19;93218.75;5132369;27;20035;-49
2022/06/23 00:37:47;;;;;;;11.35;8.45;;;;;;;16.74;79.71;93214.53;5151261;27;20019;-47
2022/06/23 00:40:14;;;;;;;15.30;8.35;;;;;;;16.80;80.14;93220.50;5132904;27;20057;-46
2022/06/23 00:42:58;;;;;;;24.67;8.88;;;;;;;16.75;79.82;93211.13;5151277;27;20410;-49
2022/06/23 00:45:26;;;;;;;10.25;8.18;;;;;;;16.77;79.28;93202.91;5145639;27;20030;-50
2022/06/23 00:48:30;;;;;;;13.73;7.95;;;;;;;16.61;80.35;93205.31;5130368;27;20134;-50
2022/06/23 00:51:15;;;;;;;12.68;7.50;;;;;;;16.46;80.60;93216.81;5099361;27;20050;-48
2022/06/23 00:53:48;;;;;;;12.32;7.38;;;;;;;16.53;81.13;93190.13;5111961;27;20160;-49
2022/06/23 00:56:27;;;;;;;7.90;7.07;;;;;;;16.54;82.05;93177.66;5112214;27;20566;-46
2022/06/23 00:59:22;;;;;;;9.05;6.05;;;;;;;16.72;80.15;93175.34;5129391;27;20465;-47
2022/06/23 01:01:59;;;;;;;18.17;6.80;;;;;;;16.72;81.04;93169.78;5129777;27;20127;-49
2022/06/23 01:04:47;;;;;;;14.50;6.60;;;;;;;16.72;80.48;93167.00;5129383;27;20023;-51
2022/06/23 01:07:31;;;;;;;11.88;7.28;;;;;;;16.70;79.93;93184.28;5130557;27;20047;-48
2022/06/23 01:10:10;;;;;;;11.43;6.75;;;;;;;16.76;80.53;93184.00;5130128;27;20119;-47
2022/06/23 01:12:43;;;;;;;16.73;6.85;;;;;;;16.65;80.49;93174.22;5128756;27;20033;-45
2022/06/23 01:15:37;;;;;;;13.52;6.80;;;;;;;16.68;79.73;93184.91;5129220;27;20042;-48
2022/06/23 01:18:17;;;;;;;10.38;6.78;;;;;;;16.67;80.37;93189.00;5135221;27;20031;-47
2022/06/23 01:20:54;;;;;;;14.65;7.15;;;;;;;16.49;81.24;93182.19;5127225;27;20102;-48
2022/06/23 01:23:41;;;;;;;16.33;7.30;;;;;;;16.63;79.82;93174.09;5119533;27;20084;-49
2022/06/23 01:26:06;;;;;;;9.50;6.30;;;;;;;16.55;80.21;93184.66;5136964;27;20035;-50
2022/06/23 01:28:37;;;;;;;10.10;6.80;;;;;;;16.51;80.07;93179.56;5149638;27;20090;-47
2022/06/23 01:31:38;;;;;;;13.57;6.95;;;;;;;16.34;80.96;93179.03;5128306;27;20110;-47
2022/06/23 01:34:15;;;;;;;10.55;6.80;;;;;;;16.46;80.37;93168.69;5094603;27;20039;-46
2022/06/23 01:36:56;;;;;;;13.65;6.30;;;;;;;16.33;81.43;93163.66;5111295;28;20031;-47
2022/06/23 01:39:28;;;;;;;7.55;5.90;;;;;;;16.38;80.97;93166.09;5111335;28;20033;-48
2022/06/23 01:42:00;;;;;;;11.13;6.32;;;;;;;16.33;80.77;93164.34;5130038;28;20053;-48
2022/06/23 01:44:59;;;;;;;14.90;7.28;;;;;;;16.33;80.48;93164.34;5111471;28;20019;-45
2022/06/23 01:47:34;;;;;;;9.00;6.32;;;;;;;16.48;79.38;93157.72;5129637;28;20463;-46
2022/06/23 01:50:15;;;;;;;10.90;6.38;;;;;;;16.46;79.32;93143.63;5129829;28;20396;-47
2022/06/23 01:52:42;;;;;;;18.60;7.43;;;;;;;16.37;79.35;93142.34;5140391;27;20034;-47
2022/06/23 01:55:38;;;;;;;14.02;6.60;;;;;;;16.10;80.45;93141.16;5150037;27;20061;-49
2022/06/23 01:58:07;;;;;;;8.45;6.30;;;;;;;16.08;80.12;93141.75;5149163;27;20506;-47
2022/06/23 02:00:40;;;;;;;8.98;5.90;;;;;;;16.13;79.87;93137.19;5150600;27;20217;-48
2022/06/23 02:03:22;;;;;;;10.68;5.35;;;;;;;16.11;79.46;93109.22;5131966;27;20140;-48
2022/06/23 02:05:54;;;;;;;9.75;5.68;;;;;;;16.12;79.66;93108.59;5131654;27;20050;-46
2022/06/23 02:08:39;;;;;;;15.27;6.30;;;;;;;15.99;80.02;93114.66;5150310;27;20091;-46
2022/06/23 02:11:18;;;;;;;8.02;5.25;;;;;;;16.05;79.55;93128.28;5131325;27;20503;-49
2022/06/23 02:13:50;;;;;;;11.93;6.43;;;;;;;16.11;78.95;93137.78;5131577;27;20132;-46
2022/06/23 02:16:40;;;;;;;9.80;5.70;;;;;;;15.80;79.02;93131.44;5149919;27;20522;-47
2022/06/23 02:19:39;;;;;;;11.13;5.32;;;;;;;15.82;79.28;93140.69;5129269;28;20031;-47
2022/06/23 02:22:15;;;;;;;7.95;4.53;;;;;;;15.88;78.99;93141.09;5129139;28;20060;-48
2022/06/23 02:24:51;;;;;;;12.40;5.15;;;;;;;15.91;78.33;93139.19;5147672;27;20102;-48
2022/06/23 02:27:17;;;;;;;12.98;4.90;;;;;;;15.78;79.08;93136.88;5131782;27;20410;-46
2022/06/23 02:30:07;;;;;;;13.93;5.40;;;;;;;15.89;78.36;93127.91;5149781;27;20034;-48
2022/06/23 02:32:54;;;;;;;11.52;4.63;;;;;;;15.84;78.24;93126.16;5149551;27;20038;-47
2022/06/23 02:35:25;;;;;;;9.90;4.28;;;;;;;15.69;78.44;93132.81;5150226;27;20023;-49
2022/06/23 02:38:03;;;;;;;7.47;4.47;;;;;;;15.70;78.98;93139.09;5150178;27;20108;-47
2022/06/23 02:40:40;;;;;;;7.47;4.50;;;;;;;15.53;78.88;93139.25;5131369;27;20034;-47
2022/06/23 02:43:11;;;;;;;9.82;3.97;;;;;;;15.68;77.87;93141.75;5149940;27;20033;-47
2022/06/23 02:45:55;;;;;;;15.40;4.70;;;;;;;15.67;77.77;93140.28;5151976;27;20034;-48
2022/06/23 02:48:35;;;;;;;6.05;3.80;;;;;;;15.73;76.82;93138.66;5153356;27;20078;-47
2022/06/23 02:51:03;;;;;;;7.90;4.85;;;;;;;15.70;76.99;93144.66;5153492;27;20035;-49
2022/06/23 02:53:37;;;;;;;16.23;4.68;;;;;;;15.59;77.16;93146.00;5153298;27;20530;-48
2022/06/23 02:56:16;;;;;;;15.90;4.30;;;;;;;15.63;77.40;93146.28;5152349;27;20575;-50
2022/06/23 02:58:50;;;;;;;9.15;4.82;;;;;;;15.51;77.82;93147.47;5134584;27;20054;-46
2022/06/23 03:01:22;;;;;;;7.68;5.30;;;;;;;15.57;78.70;93159.75;5152824;27;20031;-48
2022/06/23 03:04:03;;;;;;;11.73;4.80;;;;;;;15.50;78.81;93160.66;5153098;27;20700;-48
2022/06/23 03:06:38;;;;;;;6.38;4.93;;;;;;;15.56;78.17;93160.34;5153406;27;20113;-48
2022/06/23 03:09:23;;;;;;;8.07;4.45;;;;;;;15.52;78.19;93162.84;5130290;27;20031;-46
2022/06/23 03:12:13;;;;;;;8.65;4.63;;;;;;;15.38;78.98;93159.03;5130011;27;20031;-47
2022/06/23 03:14:42;;;;;;;8.07;5.25;;;;;;;15.21;79.83;93162.69;5149047;27;20034;-46
2022/06/23 03:17:41;;;;;;;10.50;5.37;;;;;;;15.27;79.94;93176.34;5152977;27;20077;-48
2022/06/23 03:20:25;;;;;;;7.25;5.13;;;;;;;15.48;79.12;93176.47;5152781;27;20527;-46
2022/06/23 03:22:58;;;;;;;15.68;5.60;;;;;;;15.56;78.53;93168.69;5132339;27;20030;-48
2022/06/23 03:25:27;;;;;;;6.78;5.40;;;;;;;15.61;78.60;93168.41;5131955;27;20042;-45
2022/06/23 03:27:58;;;;;;;11.48;5.13;;;;;;;15.54;78.87;93176.91;5132276;27;20110;-48
2022/06/23 03:30:36;;;;;;;7.40;4.68;;;;;;;15.36;79.11;93170.00;5132039;27;20038;-46
2022/06/23 03:33:17;;;;;;;7.90;4.35;;;;;;;15.56;78.50;93163.13;5131363;27;20084;-46
2022/06/23 03:35:55;;;;;;;9.27;4.55;;;;;;;15.50;78.73;93155.09;5132072;27;20027;-47
2022/06/23 03:41:36;;;;;;;5.35;4.00;;;;;;;15.55;77.86;93148.50;5130547;27;20027;-46
2022/06/23 03:44:00;;;;;;;8.45;4.13;;;;;;;15.58;79.34;93150.09;5143407;27;20038;-48
2022/06/23 03:46:27;;;;;;;7.05;4.55;;;;;;;15.62;78.12;93172.66;5129096;27;20473;-47
2022/06/23 03:49:30;;;;;;;7.10;4.53;;;;;;;15.61;77.13;93164.91;5130124;27;20066;-44
2022/06/23 03:51:58;;;;;;;10.43;4.70;;;;;;;15.57;77.79;93156.97;5131863;27;20035;-45
2022/06/23 03:54:28;;;;;;;6.28;4.90;;;;;;;15.59;78.08;93162.69;5131956;27;20091;-44
2022/06/23 03:56:57;;;;;;;5.28;4.50;;;;;;;15.53;79.07;93161.53;5130086;27;20033;-45
2022/06/23 03:59:35;;;;;;;6.20;4.55;;;;;;;15.59;79.46;93162.69;5130297;27;20039;-44
2022/06/23 04:02:12;;;;;;;9.05;4.25;;;;;;;15.69;79.09;93157.09;5131446;27;20530;-46
2022/06/23 04:04:46;;;;;;;9.70;3.95;;;;;;;15.63;79.00;93159.47;5130558;27;20031;-45
2022/06/23 04:07:29;;;;;;;8.98;4.30;;;;;;;15.67;79.55;93159.75;5131403;27;20031;-47
2022/06/23 04:10:07;;;;;;;6.30;4.00;;;;;;;15.90;79.50;93154.41;5131176;27;20031;-46
2022/06/23 04:12:34;;;;;;;5.78;3.97;;;;;;;15.97;79.05;93150.72;5149369;27;20043;-47
2022/06/23 04:15:06;;;;;;;8.90;4.65;;;;;;;15.92;77.50;93152.50;5152000;27;20094;-48
2022/06/23 04:17:41;;;;;;;4.63;3.35;;;;;;;16.07;77.16;93154.19;5133054;27;20022;-47
2022/06/23 04:20:47;;;;;;;6.82;4.00;;;;;;;16.17;75.59;93156.97;5151055;27;20753;-49
2022/06/23 04:23:28;;;;;;;16.58;4.50;;;;;;;16.22;76.62;93155.94;5129803;27;20161;-46
2022/06/23 04:26:03;;;;;;;10.32;4.50;;;;;;;16.27;75.12;93158.38;5129544;27;20533;-47
2022/06/23 04:28:52;;;;;;;10.45;4.72;;;;;;;16.44;74.83;93169.31;5130844;27;20019;-48
2022/06/23 04:31:27;;;;;;;10.38;3.95;;;;;;;16.34;75.82;93176.25;5118014;27;20078;-47
2022/06/23 04:33:53;;;;;;;7.85;4.60;;;;;;;16.35;76.27;93161.00;5112478;27;20109;-48
2022/06/23 04:36:25;;;;;;;24.02;4.97;;;;;;;16.41;77.33;93161.41;5130962;27;20067;-49
2022/06/23 04:38:57;;;;;;;7.38;3.75;;;;;;;16.43;78.16;93156.69;5112470;27;20404;-50
2022/06/23 04:41:25;;;;;;;8.77;3.70;;;;;;;16.52;78.40;93155.94;5130870;27;20106;-48
2022/06/23 04:43:55;;;;;;;4.90;3.83;;;;;;;16.59;77.90;93157.81;5112319;27;20066;-50
2022/06/23 04:46:31;;;;;;;8.00;3.65;;;;;;;16.72;78.32;93153.06;5125240;27;20054;-50
2022/06/23 04:49:03;;;;;;;9.60;3.65;;;;;;;16.81;78.20;93150.19;5132429;27;20058;-46
2022/06/23 04:51:33;;;;;;;3.97;3.05;;;;;;;16.94;76.49;93157.28;5128546;27;20053;-49
2022/06/23 04:54:10;;;;;;;4.82;3.25;;;;;;;16.95;76.52;93165.09;5129112;27;20041;-50
2022/06/23 04:56:36;;;;;;;10.10;3.03;;;;;;;17.02;76.77;93152.25;5141700;27;20035;-49
2022/06/23 04:59:29;;;;;;;3.72;3.15;;;;;;;17.15;75.67;93158.00;5151055;27;20033;-50
2022/06/23 05:01:57;;;;;;;16.75;4.65;;;;;;;17.08;75.87;93149.88;5148550;27;20035;-52
2022/06/23 05:04:27;;;;;;;8.30;3.95;;;;;;;17.29;75.51;93147.03;5120945;27;20566;-47
2022/06/23 05:06:55;;;;;;;4.32;3.38;;;;;;;17.40;75.88;93147.09;5111321;27;20062;-51
2022/06/23 05:09:36;;;;;;;5.22;4.45;;;;;;;17.57;74.46;93153.72;5129967;27;20087;-52
2022/06/23 05:12:06;;;;;;;9.77;4.32;;;;;;;17.54;75.09;93127.78;5111595;27;20026;-49
2022/06/23 05:14:57;;;;;;;7.10;3.90;;;;;;;17.77;75.85;93141.03;5133853;27;20156;-50
2022/06/23 05:17:25;;;;;;;8.30;4.00;;;;;;;17.77;74.98;93124.28;5149875;27;20037;-48
2022/06/23 05:20:03;;;;;;;6.63;3.90;;;;;;;17.89;74.96;93125.03;5132071;27;20026;-48
2022/06/23 05:22:35;;;;;;;9.45;4.03;;;;;;;17.99;75.48;93137.59;5150513;27;20089;-52
2022/06/23 05:25:37;;;;;;;6.93;4.45;;;;;;;18.11;74.58;93143.16;5132362;27;20030;-48
2022/06/23 05:28:18;;;;;;;7.07;3.35;;;;;;;18.24;73.66;93141.84;5144344;27;20087;-48
2022/06/23 05:30:56;;;;;;;6.45;3.60;;;;;;;18.36;74.09;93140.53;5150305;27;20094;-48
2022/06/23 05:33:49;;;;;;;6.13;3.17;;;;;;;18.58;73.37;93149.53;5131870;27;20037;-47
2022/06/23 05:36:27;;;;;;;5.15;3.13;;;;;;;18.80;72.76;93154.38;5121743;27;20030;-49
2022/06/23 05:38:56;;;;;;;6.18;3.70;;;;;;;18.84;72.05;93135.03;5132172;27;20030;-49
2022/06/23 05:41:39;;;;;;;4.35;2.90;;;;;;;19.02;70.17;93146.53;5132219;27;20035;-48
2022/06/23 05:44:14;;;;;;;4.35;3.22;;;;;;;19.02;70.59;93163.34;5132093;27;20022;-48
2022/06/23 05:46:41;;;;;;;5.75;2.92;;;;;;;18.94;71.06;93171.25;5132016;27;20038;-48
2022/06/23 05:49:16;;;;;;;4.30;2.85;;;;;;;18.88;70.71;93179.31;5150380;27;20054;-51
2022/06/23 05:52:16;;;;;;;11.63;3.55;;;;;;;18.87;70.00;93205.81;5150079;27;20026;-50
2022/06/23 05:54:59;;;;;;;4.43;3.40;;;;;;;18.77;70.82;93222.75;5094881;27;20427;-47
2022/06/23 05:57:30;;;;;;;6.72;3.38;;;;;;;18.60;72.85;93239.13;5131718;27;20102;-51
2022/06/23 06:00:16;;;;;;;4.57;3.30;;;;;;;18.52;72.18;93255.41;5148923;27;20039;-47
2022/06/23 06:02:55;;;;;;;8.50;3.40;;;;;;;18.37;71.07;93276.13;5129190;27;20845;-47
2022/06/23 06:05:27;;;;;;;;;;;;;;;18.40;71.98;93302.16;5151273;27;20050;-48
2022/06/23 06:07:52;;;;;;;6.38;3.00;;;;;;;18.32;68.93;93330.31;5150634;27;20544;-49
2022/06/23 06:10:21;;;;;;;3.80;2.88;;;;;;;18.17;64.71;93378.25;5148391;27;20039;-45
2022/06/23 06:12:47;;;;;;;;;;;;;;;17.79;66.70;93426.75;5132094;27;20050;-45
2022/06/23 06:15:17;;;;;;;4.53;4.13;;;;;;;17.25;69.75;93442.56;5131308;27;20391;-44
2022/06/23 06:17:43;;;;;;;7.93;5.47;;;;;;;16.55;72.09;93399.28;5150195;27;20053;-46
2022/06/23 06:20:10;;;;;;;6.30;5.57;;;;;;;16.45;72.23;93337.97;5151939;27;20538;-47
2022/06/23 06:22:50;;;;;;;10.25;5.25;;;;;;;16.24;74.92;93340.63;5153982;27;20023;-45
2022/06/23 06:25:29;;;;;;;5.22;3.17;;;;;;;16.17;77.12;93357.50;5153839;27;20030;-47
2022/06/23 06:28:01;;;;;;;5.55;3.10;;;;;;;16.14;77.97;93330.81;5153889;27;20023;-46
2022/06/23 06:30:31;;;;;;;7.72;4.55;;;;;;;16.10;78.88;93303.44;5135993;27;20081;-43
2022/06/23 06:32:57;;;;;;;8.20;6.57;;;;;;;16.10;79.17;93285.97;5135007;27;20027;-45
2022/06/23 06:35:23;;;;;;;8.70;7.90;;;;;;;16.07;75.09;93260.03;5135160;27;20031;-43
2022/06/23 06:38:06;;;;;;;4.35;3.90;;;;;;;16.07;77.00;93259.31;5153921;27;20023;-47
2022/06/23 06:40:33;;;;;;;5.43;3.10;;;;;;;15.86;78.85;93241.19;5135023;27;20606;-44
2022/06/23 06:43:03;;;;;;;5.63;3.17;;;;;;;15.55;81.61;93218.06;5134253;27;20034;-41
2022/06/23 06:45:33;;;;;;;6.07;3.40;;;;;;;15.40;82.81;93200.94;5153413;27;20031;-44
2022/06/23 06:47:58;;;;;;;10.75;3.20;;;;;;;15.38;81.60;93209.84;5153215;27;20495;-42
2022/06/23 06:50:45;;;;;;;7.85;3.47;;;;;;;15.23;82.63;93201.78;5153569;27;20087;-41
2022/06/23 06:53:35;;;;;;;8.48;3.95;;;;;;;15.27;83.22;93188.16;5153770;27;20042;-43
2022/06/23 06:56:17;;;;;;;7.05;4.18;;;;;;;15.35;84.78;93210.28;5121958;27;20476;-47
2022/06/23 06:58:45;;;;;;;5.70;3.83;;;;;;;15.29;85.76;93207.06;5153228;27;20026;-41
2022/06/23 07:01:25;;;;;;;12.67;4.47;;;;;;;15.35;86.25;93208.25;5145893;27;20039;-45
2022/06/23 07:03:53;;;;;;;11.30;5.47;;;;;;;15.45;87.39;93213.81;5153162;27;20531;-46
2022/06/23 07:06:39;;;;;;;11.75;6.13;;;;;;;15.61;86.96;93234.47;5153320;27;20489;-46
2022/06/23 07:09:26;;;;;;;10.45;6.20;;;;;;;15.64;85.09;93247.94;5153250;27;20030;-45
2022/06/23 07:12:06;;;;;;;7.80;5.28;;;;;;;15.76;84.03;93262.72;5133649;27;20074;-43
2022/06/23 07:15:15;;;;;;;8.68;5.82;;;;;;;15.83;83.36;93267.41;5126979;27;20097;-45
2022/06/23 07:17:40;;;;;;;;;;;;;;;15.91;82.42;93279.13;5133302;27;20054;-43
2022/06/23 07:20:14;;;;;;;8.20;4.57;;;;;;;15.90;82.68;93283.22;5151192;27;19961;-44
2022/06/23 07:22:46;;;;;;;5.70;3.88;;;;;;;15.93;82.58;93281.31;5111675;27;20444;-42
2022/06/23 07:25:26;;;;;;;23.98;6.07;;;;;;;15.79;85.37;93292.16;5131691;27;20041;-49
2022/06/23 07:28:00;;;;;;;12.55;10.35;;;;;;;15.74;85.08;93312.66;5121577;27;20090;-45
2022/06/23 07:30:39;;;;;;;11.60;4.68;;;;;;;15.94;85.83;93341.97;5139873;27;20109;-48
2022/06/23 07:33:20;;;;;;;6.38;4.65;;;;;;;15.93;85.49;93317.50;5122954;27;20038;-44
2022/06/23 07:36:06;;;;;;;15.85;6.00;;;;;;;15.86;87.00;93310.78;5140144;27;20027;-45
2022/06/23 07:38:44;;;;;;;11.82;5.07;;;;;;;16.02;86.70;93355.78;5142366;27;20035;-46
2022/06/23 07:41:22;;;;;;;8.90;4.72;;;;;;;16.12;85.83;93361.31;5140955;27;20063;-46
2022/06/23 07:43:54;;;;;;;6.85;5.03;;;;;;;16.18;84.61;93328.31;5141711;27;20546;-45
2022/06/23 07:46:20;;;;;;;8.80;4.95;;;;;;;16.23;84.85;93353.09;5120519;27;20030;-46
2022/06/23 07:48:46;;;;;;;10.30;4.97;;;;;;;16.23;85.54;93364.25;5135370;27;20083;-45
2022/06/23 07:51:13;;;;;;;16.27;7.57;;;;;;;15.93;85.38;93301.56;5138834;27;20114;-44
2022/06/23 07:53:44;;;;;;;11.02;6.82;;;;;;;16.15;86.39;93338.59;5142957;27;20169;-46
2022/06/23 07:56:15;;;;;;;8.45;5.05;;;;;;;16.13;84.08;93318.97;5130913;27;20026;-45
2022/06/23 07:58:42;;;;;;;9.13;5.57;;;;;;;16.17;83.22;93315.72;5143093;27;20042;-46
2022/06/23 08:01:18;;;;;;;7.57;5.18;;;;;;;16.29;83.57;93286.66;5130589;27;20093;-47
2022/06/23 08:04:00;;;;;;;9.48;5.03;;;;;;;16.37;83.19;93259.38;5120367;27;20042;-45
2022/06/23 08:06:26;;;;;;;5.82;4.72;;;;;;;16.47;82.45;93262.13;5139035;27;20035;-43
2022/06/23 08:08:55;;;;;;;10.18;4.60;;;;;;;16.14;84.69;93281.44;5146905;27;20067;-45
2022/06/23 08:14:13;;;;;;;5.93;4.57;;;;;;;15.88;86.47;93299.78;5125768;27;20053;-46
2022/06/23 08:16:51;;;;;;;12.98;6.97;;;;;;;15.77;89.56;93282.94;5127839;27;20133;-44
2022/06/23 08:20:01;;;;;;;9.20;5.68;;;;;;;15.75;90.98;93291.88;5119415;27;20026;-45
2022/06/23 08:22:33;;;;;;;12.50;6.18;;;;;;;15.86;93.61;93304.47;5143675;27;20806;-44
2022/06/23 08:25:01;;;;;;;6.45;5.22;;;;;;;16.13;93.88;93313.41;5124269;27;20035;-48
2022/06/23 08:27:30;;;;;;;5.90;4.70;;;;;;;16.44;86.04;93317.00;5146145;27;20026;-45
2022/06/23 08:30:07;;;;;;;12.65;5.00;;;;;;;16.56;86.46;93314.34;5148444;27;20110;-46
2022/06/23 08:32:33;;;;;;;5.95;4.78;;;;;;;16.78;85.82;93326.31;5146710;27;20087;-46
2022/06/23 08:35:08;;;;;;;6.00;4.82;;;;;;;16.82;85.45;93344.06;5123458;27;20027;-45
2022/06/23 08:37:46;;;;;;;6.07;4.85;;;;;;;16.84;85.03;93337.88;5116454;27;20034;-45
2022/06/23 08:40:23;;;;;;;6.78;4.53;;;;;;;16.86;83.25;93329.66;5127040;27;20022;-45
2022/06/23 08:43:13;;;;;;;5.43;4.90;;;;;;;16.89;83.20;93315.25;5127673;27;20030;-44
2022/06/23 08:45:47;;;;;;;9.98;5.03;;;;;;;16.91;84.21;93317.47;5127486;27;20121;-47
2022/06/23 08:48:27;;;;;;;7.57;4.90;;;;;;;16.87;85.51;93308.81;5142262;27;20546;-46
2022/06/23 08:51:31;;;;;;;7.85;5.60;;;;;;;17.06;84.84;93298.31;5142289;27;20035;-46
2022/06/23 08:54:19;;;;;;;8.10;4.20;;;;;;;17.06;82.35;93286.41;5104921;27;20037;-45
2022/06/23 08:56:50;;;;;;;6.03;4.20;;;;;;;17.06;83.61;93269.69;5143201;27;20527;-45
2022/06/23 08:59:35;;;;;;;6.10;4.47;;;;;;;17.25;83.76;93298.19;5147306;27;20451;-45
2022/06/23 09:02:12;;;;;;;5.57;3.90;;;;;;;17.55;80.81;93302.28;5139344;27;20054;-46
2022/06/23 09:04:58;;;;;;;6.38;5.00;;;;;;;17.83;82.58;93306.19;5147179;27;20101;-45
2022/06/23 09:07:35;;;;;;;7.72;4.22;;;;;;;18.28;82.39;93284.63;5142417;27;20026;-45
2022/06/23 09:10:24;;;;;;;5.00;3.28;;;;;;;18.65;77.50;93282.78;5126745;27;20454;-47
2022/06/23 09:13:30;;;;;;;4.38;3.95;;;;;;;19.35;75.18;93278.69;5139259;27;20045;-46
2022/06/23 09:16:13;;;;;;;6.03;3.33;;;;;;;20.95;70.52;93294.72;5116976;27;20095;-45
2022/06/23 09:19:06;;;;;;;3.25;2.80;;;;;;;21.61;63.62;93291.13;5120031;27;20030;-46
2022/06/23 09:21:56;;;;;;;3.95;2.65;;;;;;;21.87;62.52;93301.63;5139800;27;20046;-47
2022/06/23 09:24:33;;;;;;;2.95;2.72;;;;;;;22.27;63.03;93297.25;5144931;27;20113;-46
2022/06/23 09:27:01;;;;;;;3.25;2.60;;;;;;;22.68;62.25;93291.50;5148633;27;20030;-49
2022/06/23 09:29:55;;;;;;;3.80;3.22;;;;;;;22.78;61.06;93291.97;5149221;27;20034;-50
2022/06/23 09:32:52;;;;;;;6.90;2.80;;;;;;;22.88;60.27;93288.88;5123275;27;20035;-46
2022/06/23 09:36:02;;;;;;;2.75;2.33;;;;;;;23.15;59.65;93283.09;5129099;27;20030;-47
2022/06/23 09:38:36;;;;;;;5.97;3.20;;;;;;;22.97;57.95;93268.94;5095831;27;20039;-46
2022/06/23 09:41:07;;;;;;;7.30;3.13;;;;;;;22.79;58.76;93282.16;5127258;28;20096;-48
2022/06/23 09:43:59;;;;;;;6.00;3.17;;;;;;;22.52;59.00;93276.66;5127350;28;20035;-46
2022/06/23 09:46:53;;;;;;;3.58;2.63;;;;;;;22.43;57.67;93264.28;5122791;27;20041;-47
2022/06/23 09:49:37;;;;;;;6.72;3.20;;;;;;;22.68;60.16;93271.78;5148461;27;20049;-46
2022/06/23 09:52:28;;;;;;;3.50;2.63;;;;;;;22.69;58.21;93266.91;5149400;27;20107;-46
2022/06/23 09:54:59;;;;;;;5.25;3.17;;;;;;;22.84;59.67;93266.19;5152759;27;20033;-47
2022/06/23 09:58:03;;;;;;;5.93;2.95;;;;;;;22.92;59.01;93267.28;5154358;27;20030;-47
2022/06/23 10:00:46;;;;;;;4.20;3.03;;;;;;;23.57;56.36;93261.72;5108043;27;20066;-46
2022/06/23 10:03:40;;;;;;;3.75;2.80;;;;;;;24.18;54.89;93243.16;5154755;27;20029;-48
2022/06/23 10:06:17;;;;;;;3.30;3.00;;;;;;;25.03;56.36;93257.78;5135827;27;20029;-49
2022/06/23 10:09:20;;;;;;;4.53;2.92;;;;;;;25.78;48.51;93250.63;5154283;27;20023;-47
2022/06/23 10:12:13;;;;;;;3.35;2.90;;;;;;;26.21;50.20;93247.88;5154416;27;20074;-48
2022/06/23 10:14:50;;;;;;;3.15;2.85;;;;;;;26.24;50.17;93245.84;5152396;27;20069;-49
2022/06/23 10:17:52;;;;;;;5.10;2.25;;;;;;;25.87;51.07;93251.63;5139664;27;20031;-49
2022/06/23 10:20:50;;;;;;;3.50;2.78;;;;;;;25.35;52.62;93242.00;5105813;27;20039;-50
2022/06/23 10:23:21;;;;;;;3.67;2.45;;;;;;;24.83;49.06;93240.81;5096882;27;20035;-47
2022/06/23 10:25:52;;;;;;;8.43;3.35;;;;;;;24.61;54.21;93239.91;5144946;27;20033;-46
2022/06/23 10:28:41;;;;;;;5.32;3.28;;;;;;;24.36;55.69;93237.53;5146833;27;20021;-47
2022/06/23 10:31:12;;;;;;;4.22;3.20;;;;;;;24.35;52.70;93219.13;5143980;27;20053;-46
2022/06/23 10:33:57;;;;;;;4.65;2.78;;;;;;;24.49;55.08;93220.44;5147543;27;20027;-48
2022/06/23 10:36:50;;;;;;;3.60;2.25;;;;;;;25.47;53.52;93225.50;5131822;27;20407;-47
2022/06/23 10:39:21;;;;;;;3.58;2.40;;;;;;;26.70;49.46;93223.94;5150660;27;20023;-48
2022/06/23 10:41:59;;;;;;;4.95;2.35;;;;;;;26.51;48.94;93216.97;5147873;27;20083;-48
2022/06/23 10:44:46;;;;;;;2.92;2.22;;;;;;;26.23;47.61;93230.97;5143543;27;20146;-49
2022/06/23 10:47:31;;;;;;;5.80;2.75;;;;;;;26.24;48.86;93226.03;5149662;27;20051;-47
2022/06/23 10:50:29;;;;;;;5.13;2.80;;;;;;;26.27;48.98;93224.69;5129510;27;20124;-49
2022/06/23 10:53:10;;;;;;;3.47;2.25;;;;;;;26.65;48.88;93223.09;5126176;27;20066;-47
2022/06/23 10:55:57;;;;;;;5.55;2.22;;;;;;;27.10;48.42;93213.84;5136936;27;20038;-50
2022/06/23 10:58:26;;;;;;;2.35;2.00;;;;;;;26.94;47.96;93207.72;5145039;27;20233;-51
2022/06/23 11:01:09;;;;;;;4.80;2.42;;;;;;;27.42;47.33;93203.44;5146902;27;20030;-52
2022/06/23 11:03:59;;;;;;;3.35;2.28;;;;;;;28.29;49.14;93203.59;5147345;27;20109;-52
2022/06/23 11:06:57;;;;;;;3.67;1.90;;;;;;;28.70;44.22;93198.88;5147927;27;20030;-48
2022/06/23 11:09:45;;;;;;;4.53;2.15;;;;;;;28.51;44.51;93189.94;5145562;27;20026;-49
2022/06/23 11:12:50;;;;;;;4.00;1.65;;;;;;;28.21;47.18;93186.38;5112537;27;20082;-47
2022/06/23 11:15:19;;;;;;;3.03;1.80;;;;;;;27.51;45.48;93193.75;5141433;27;20029;-48
2022/06/23 11:17:50;;;;;;;3.47;2.05;;;;;;;27.20;48.07;93199.25;5145261;27;20062;-48
2022/06/23 11:20:42;;;;;;;5.95;2.15;;;;;;;26.92;47.20;93190.66;5144028;27;20509;-48
2022/06/23 11:23:16;;;;;;;4.15;2.20;;;;;;;26.39;50.16;93202.47;5129727;27;20711;-47
2022/06/23 11:26:28;;;;;;;3.90;2.50;;;;;;;25.81;50.35;93204.09;5145224;27;20094;-51
2022/06/23 11:29:10;;;;;;;4.90;2.63;;;;;;;25.29;52.55;93216.38;5082777;28;20036;-51
2022/06/23 11:31:48;;;;;;;3.95;2.65;;;;;;;24.84;54.81;93208.34;5125222;27;20081;-52
2022/06/23 11:34:39;;;;;;;6.00;2.78;;;;;;;24.45;57.54;93223.06;5141579;27;20045;-47
2022/06/23 11:37:11;;;;;;;8.85;5.18;;;;;;;23.95;59.40;93221.03;5126478;27;20027;-47
2022/06/23 11:39:46;;;;;;;6.90;5.45;;;;;;;23.41;60.93;93213.13;5140082;27;20570;-48
2022/06/23 11:42:26;;;;;;;12.80;7.35;;;;;;;23.10;62.72;93199.78;5131472;27;20114;-48
2022/06/23 11:45:29;;;;;;;8.90;5.88;;;;;;;22.77;63.77;93219.41;5150335;27;20756;-48
2022/06/23 11:48:23;;;;;;;8.35;7.10;;;;;;;22.54;65.43;93218.38;5136430;27;20066;-47
2022/06/23 11:50:53;;;;;;;15.13;8.77;;;;;;;22.36;66.08;93220.34;5129369;27;20038;-50
2022/06/23 11:53:46;;;;;;;14.13;8.85;;;;;;;22.47;65.54;93222.28;5129285;27;20031;-48
2022/06/23 11:56:17;;;;;;;8.88;7.28;;;;;;;22.32;65.92;93237.03;5129521;27;20031;-50
2022/06/23 11:58:57;;;;;;;9.32;7.97;;;;;;;22.21;65.60;93237.91;5128919;27;20110;-51
2022/06/23 12:01:24;;;;;;;13.13;9.43;;;;;;;22.09;66.14;93253.50;5134798;27;20030;-47
2022/06/23 12:04:21;;;;;;;11.10;9.98;;;;;;;21.94;67.53;93254.16;5149423;27;20456;-48
2022/06/23 12:07:31;;;;;;;13.70;11.38;;;;;;;21.88;67.08;93258.13;5147491;27;20019;-49
2022/06/23 12:10:08;;;;;;;8.15;6.25;;;;;;;21.58;67.80;93255.84;5124880;27;20052;-47
2022/06/23 12:12:35;;;;;;;7.20;5.75;;;;;;;21.27;68.54;93270.44;5150203;27;20030;-47
2022/06/23 12:15:05;;;;;;;9.20;5.97;;;;;;;21.03;68.94;93271.97;5152117;27;20077;-50
2022/06/23 12:17:36;;;;;;;8.02;5.78;;;;;;;20.84;69.22;93272.34;5149902;27;20054;-51
2022/06/23 12:20:17;;;;;;;7.53;4.95;;;;;;;20.66;68.81;93266.47;5112754;27;20518;-47
2022/06/23 12:22:56;;;;;;;6.07;4.93;;;;;;;20.41;68.23;93266.50;5132538;27;20031;-46
2022/06/23 12:25:24;;;;;;;;;;;;;;;20.37;68.32;93263.50;5152466;27;20039;-49
2022/06/23 12:28:19;;;;;;;7.05;4.05;;;;;;;20.23;69.41;93266.22;5151908;27;19993;-45
2022/06/23 12:31:09;;;;;;;8.98;4.63;;;;;;;20.05;70.74;93253.25;5132976;27;20031;-48
2022/06/23 12:33:56;;;;;;;4.15;3.75;;;;;;;20.27;69.72;93265.75;5131710;27;20080;-48